Hovedside
METAR-TAF:

METAR-TAF

Lufthavner :

Roskilde, Danmark

Roskilde lufthavn

breddegrad: 55-35N, lengdegrad: 012-08E, høyde over havet: 44 m

Gjeldene værobservasjon

Denne rapporten ble laget for 24 minutter siden, klokken 04:20 UTC
Vind 6 kt fra Vest-sørvest
Temperatur 0°C
Luftfuktighet 86%
Trykk 1000 hPa
Sikt 10 km eller mer

METAR: EKRK 250420Z AUTO 24006KT 9999NDV NCD M00/M02 Q1000

Tid: 06:44 (04:44 UTC)

Varsel

Denne rapporten ble laget for 2 timer og 24 minutter siden, klokken 02:20 UTC
Varsel gyldig fra 25. klokken 03 UTC til 25. klokken 12 UTC
Vind 12 kt fra Vest
Sikt 10 km eller mer
Få skyer i en høyde av 2500 ft
Midlertidig
fra 25. klokken 10 UTC til 25. klokken 12 UTC
Vind 15 kt fra Vest med vindkast opp mot 25 kt
Brutte skyer i en høyde av 1500 ft, Bygeskyer.
regnbyger

TAF: EKRK 250220Z 2503/2512 26012KT 9999 FEW025 TEMPO 2510/2512 27015G25KT SHRA BKN015CB

Værobservasjoner og værvarsel for over 4000 flyplasser (METAR- og TAF-rapporter).

Tilgjengelige stasjoner er representert av de røde og gule prikkene på kartet.

Hold musepekeren over prikken for å se navnet på stasjonen.

Klikk så for å se værobservasjoner og -varsler.

For å forandre kartet kan du klikke på den grønne knappen med svart kryss for å zoome inn, på den grønne knappen med strek for å zoome ut, eller på de grønne pilene for å se tilstøtende kart.


METAR-TAF: